createdAt,value
2022-08-25T00:03:21.739Z,98140.00
2022-08-25T00:07:24.291Z,98142.00
2022-08-25T00:11:28.906Z,98142.00
2022-08-25T00:15:31.818Z,98144.00
2022-08-25T00:19:35.570Z,98144.00
2022-08-25T00:23:36.784Z,98139.00
2022-08-25T00:27:38.065Z,98141.00
2022-08-25T00:31:40.248Z,98156.00
2022-08-25T00:35:41.801Z,98147.00
2022-08-25T00:39:42.795Z,98141.00
2022-08-25T00:43:51.318Z,98146.00
2022-08-25T00:47:52.632Z,98143.00
2022-08-25T00:52:00.080Z,98141.00
2022-08-25T00:56:01.917Z,98142.00
2022-08-25T01:00:06.870Z,98142.00
2022-08-25T01:04:08.173Z,98145.00
2022-08-25T01:08:10.673Z,98138.00
2022-08-25T01:12:12.198Z,98134.00
2022-08-25T01:16:15.409Z,98133.00
2022-08-25T01:20:19.370Z,98129.00
2022-08-25T01:24:24.206Z,98130.00
2022-08-25T01:28:25.423Z,98129.00
2022-08-25T01:32:26.463Z,98132.00
2022-08-25T01:36:29.170Z,98134.00
2022-08-25T01:40:31.109Z,98135.00
2022-08-25T01:44:35.412Z,98139.00
2022-08-25T01:48:36.793Z,98142.00
2022-08-25T01:52:59.989Z,98143.00
2022-08-25T01:57:01.591Z,98136.00
2022-08-25T02:01:06.261Z,98134.00
2022-08-25T02:05:09.285Z,98143.00
2022-08-25T02:09:14.245Z,98138.00
2022-08-25T02:13:16.053Z,98143.00
2022-08-25T02:17:17.181Z,98129.00
2022-08-25T02:21:18.386Z,98132.00
2022-08-25T02:25:20.073Z,98126.00
2022-08-25T02:29:21.253Z,98128.00
2022-08-25T02:33:22.271Z,98155.00
2022-08-25T02:37:23.415Z,98127.00
2022-08-25T02:41:30.737Z,98125.00
2022-08-25T02:45:28.640Z,98126.00
2022-08-25T02:49:31.459Z,98145.00
2022-08-25T02:53:33.386Z,98127.00
2022-08-25T02:57:35.270Z,98127.00
2022-08-25T03:01:36.495Z,98122.00
2022-08-25T03:05:38.187Z,98125.00
2022-08-25T03:09:39.391Z,98112.00
2022-08-25T03:13:40.825Z,98100.00
2022-08-25T03:17:45.539Z,98093.00
2022-08-25T03:21:47.373Z,98074.00
2022-08-25T03:26:07.349Z,98085.00
2022-08-25T03:30:10.363Z,98087.00
2022-08-25T03:34:13.775Z,98097.00
2022-08-25T03:38:16.299Z,98093.00
2022-08-25T03:42:17.315Z,98103.00
2022-08-25T03:46:21.750Z,98094.00
2022-08-25T03:50:23.773Z,98085.00
2022-08-25T03:54:25.408Z,98087.00
2022-08-25T03:58:26.935Z,98091.00
2022-08-25T04:02:28.251Z,98092.00
2022-08-25T04:06:29.691Z,98091.00
2022-08-25T04:10:31.455Z,98084.00
2022-08-25T04:14:32.584Z,98070.00
2022-08-25T04:18:33.608Z,98088.00
2022-08-25T04:22:36.887Z,98085.00
2022-08-25T04:26:45.247Z,98081.00
2022-08-25T04:30:50.236Z,98080.00
2022-08-25T04:34:49.815Z,98088.00
2022-08-25T04:38:50.820Z,98083.00
2022-08-25T04:42:51.928Z,98081.00
2022-08-25T04:46:53.457Z,98081.00
2022-08-25T04:50:54.578Z,98080.00
2022-08-25T04:54:55.883Z,98085.00
2022-08-25T04:58:56.919Z,98103.00
2022-08-25T05:02:58.025Z,98097.00
2022-08-25T05:06:59.558Z,98100.00
2022-08-25T05:11:13.669Z,98095.00
2022-08-25T05:15:33.481Z,98092.00
2022-08-25T05:19:35.688Z,98098.00
2022-08-25T05:23:37.944Z,98082.00
2022-08-25T05:27:39.049Z,98082.00
2022-08-25T05:31:43.303Z,98076.00
2022-08-25T05:35:43.365Z,98071.00
2022-08-25T05:39:44.609Z,98069.00
2022-08-25T05:43:48.270Z,98068.00
2022-08-25T05:47:49.496Z,98067.00
2022-08-25T05:51:50.452Z,98062.00
2022-08-25T05:55:53.434Z,98065.00
2022-08-25T05:59:54.337Z,98057.00
2022-08-25T06:03:55.531Z,98063.00
2022-08-25T06:07:56.652Z,98062.00
2022-08-25T06:11:57.869Z,98070.00
2022-08-25T06:16:00.237Z,98058.00
2022-08-25T06:20:03.306Z,98063.00
2022-08-25T06:24:04.907Z,98058.00
2022-08-25T06:28:06.134Z,98062.00
2022-08-25T06:32:07.289Z,98060.00
2022-08-25T06:36:08.518Z,98069.00
2022-08-25T06:40:10.762Z,98065.00
2022-08-25T06:44:12.267Z,98068.00
2022-08-25T06:48:13.977Z,98065.00
2022-08-25T06:52:15.991Z,98062.00
2022-08-25T06:56:19.339Z,98067.00
2022-08-25T07:00:20.813Z,98082.00
2022-08-25T07:04:22.046Z,98072.00
2022-08-25T07:08:23.155Z,98070.00
2022-08-25T07:12:24.410Z,98072.00
2022-08-25T07:16:29.641Z,98071.00
2022-08-25T07:20:30.986Z,98058.00
2022-08-25T07:24:32.113Z,98065.00
2022-08-25T07:28:33.247Z,98067.00
2022-08-25T07:32:36.208Z,98059.00
2022-08-25T07:36:38.612Z,98061.00
2022-08-25T07:40:42.653Z,98059.00
2022-08-25T07:44:43.503Z,98058.00
2022-08-25T07:48:45.005Z,98056.00
2022-08-25T07:52:53.942Z,98068.00
2022-08-25T07:56:51.073Z,98057.00
2022-08-25T08:00:54.515Z,98056.00
2022-08-25T08:04:56.568Z,98056.00
2022-08-25T08:08:59.365Z,98064.00
2022-08-25T08:13:01.249Z,98060.00
2022-08-25T08:17:07.679Z,98063.00
2022-08-25T08:21:19.182Z,98061.00
2022-08-25T08:25:21.412Z,98057.00
2022-08-25T08:29:22.268Z,98055.00
2022-08-25T08:33:24.615Z,98051.00
2022-08-25T08:37:25.668Z,98062.00
2022-08-25T08:42:11.336Z,98063.00
2022-08-25T08:46:05.223Z,98058.00
2022-08-25T08:50:28.140Z,98055.00
2022-08-25T08:54:34.213Z,98054.00
2022-08-25T08:58:45.541Z,98049.00
2022-08-25T09:02:52.412Z,98045.00
2022-08-25T09:06:54.801Z,98042.00
2022-08-25T09:11:02.913Z,98042.00
2022-08-25T09:15:59.217Z,98036.00
2022-08-25T09:20:30.199Z,98030.00
2022-08-25T09:25:02.546Z,98035.00
2022-08-25T09:29:17.031Z,98025.00
2022-08-25T09:33:21.102Z,98022.00
2022-08-25T09:37:22.927Z,98007.00
2022-08-25T09:41:51.698Z,97999.00
2022-08-25T09:46:03.556Z,98006.00
2022-08-25T09:50:06.421Z,98004.00
2022-08-25T09:54:17.503Z,97991.00
2022-08-25T09:58:23.636Z,97982.00
2022-08-25T10:02:29.002Z,97980.00
2022-08-25T10:06:38.071Z,97971.00
2022-08-25T10:10:49.264Z,97976.00
2022-08-25T10:14:51.398Z,97959.00
2022-08-25T10:19:07.174Z,97959.00
2022-08-25T10:23:11.673Z,97960.00
2022-08-25T10:27:22.438Z,97947.00
2022-08-25T10:31:41.899Z,97939.00
2022-08-25T10:36:11.086Z,97931.00
2022-08-25T10:40:34.358Z,97925.00
2022-08-25T10:45:30.689Z,97928.00
2022-08-25T10:49:44.676Z,97921.00
2022-08-25T10:54:07.487Z,97922.00
2022-08-25T10:58:13.165Z,97920.00
2022-08-25T11:02:46.166Z,97905.00
2022-08-25T11:06:54.577Z,97908.00
2022-08-25T11:10:59.636Z,97900.00
2022-08-25T11:15:04.463Z,97909.00
2022-08-25T11:19:19.666Z,97905.00
2022-08-25T11:23:30.416Z,97900.00
2022-08-25T11:28:10.239Z,97908.00
2022-08-25T11:32:12.234Z,97905.00
2022-08-25T11:36:35.853Z,97903.00
2022-08-25T11:40:57.271Z,97900.00
2022-08-25T11:45:02.091Z,97905.00
2022-08-25T11:49:09.880Z,97900.00
2022-08-25T11:53:23.640Z,97900.00
2022-08-25T11:57:28.566Z,97898.00
2022-08-25T12:01:44.654Z,97890.00
2022-08-25T12:05:51.763Z,97893.00
2022-08-25T12:09:58.290Z,97892.00
2022-08-25T12:14:09.143Z,97891.00
2022-08-25T12:18:22.271Z,97889.00
2022-08-25T12:22:27.190Z,97880.00
2022-08-25T12:26:49.726Z,97876.00
2022-08-25T12:30:58.241Z,97869.00
2022-08-25T12:35:15.327Z,97865.00
2022-08-25T12:39:24.806Z,97860.00
2022-08-25T12:43:33.509Z,97860.00
2022-08-25T12:47:36.548Z,97856.00
2022-08-25T12:51:50.650Z,97860.00
2022-08-25T12:55:55.509Z,97853.00
2022-08-25T13:00:00.688Z,97857.00
2022-08-25T13:04:29.215Z,97851.00
2022-08-25T13:09:08.507Z,97861.00
2022-08-25T13:13:39.650Z,97853.00
2022-08-25T13:17:41.062Z,97859.00
2022-08-25T13:21:43.318Z,97853.00
2022-08-25T13:25:51.436Z,97846.00
2022-08-25T13:29:56.481Z,97844.00
2022-08-25T13:34:10.133Z,97837.00
2022-08-25T13:38:17.930Z,97834.00
2022-08-25T13:42:19.280Z,97835.00
2022-08-25T13:46:22.266Z,97831.00
2022-08-25T13:50:30.475Z,97834.00
2022-08-25T13:54:41.335Z,97836.00
2022-08-25T13:58:46.486Z,97829.00
2022-08-25T14:02:51.000Z,97821.00
2022-08-25T14:07:20.468Z,97814.00
2022-08-25T14:11:33.794Z,97819.00
2022-08-25T14:15:35.043Z,97811.00
2022-08-25T14:19:40.759Z,97808.00
2022-08-25T14:23:42.782Z,97803.00
2022-08-25T14:28:05.678Z,97796.00
2022-08-25T14:31:48.275Z,97793.00
2022-08-25T14:35:52.588Z,97784.00
2022-08-25T14:39:54.970Z,97782.00
2022-08-25T14:43:56.517Z,97776.00
2022-08-25T14:48:02.235Z,97784.00
2022-08-25T14:52:07.261Z,97773.00
2022-08-25T14:56:10.319Z,97767.00
2022-08-25T15:00:12.367Z,97765.00
2022-08-25T15:04:20.506Z,97756.00
2022-08-25T15:08:40.325Z,97759.00
2022-08-25T15:12:47.868Z,97759.00
2022-08-25T15:16:48.264Z,97752.00
2022-08-25T15:20:50.589Z,97742.00
2022-08-25T15:24:51.801Z,97768.00
2022-08-25T15:28:54.232Z,97748.00
2022-08-25T15:32:56.506Z,97746.00
2022-08-25T15:36:59.707Z,97748.00
2022-08-25T15:41:01.668Z,97749.00
2022-08-25T15:45:05.257Z,97749.00
2022-08-25T15:49:07.697Z,97746.00
2022-08-25T15:53:10.695Z,97747.00
2022-08-25T15:57:15.113Z,97749.00
2022-08-25T16:01:17.165Z,97750.00
2022-08-25T16:05:25.621Z,97744.00
2022-08-25T16:09:23.702Z,97747.00
2022-08-25T16:13:24.932Z,97753.00
2022-08-25T16:17:26.962Z,97736.00
2022-08-25T16:21:32.512Z,97740.00
2022-08-25T16:25:41.503Z,97738.00
2022-08-25T16:29:43.894Z,97737.00
2022-08-25T16:33:45.131Z,97732.00
2022-08-25T16:37:46.377Z,97724.00
2022-08-25T16:41:51.403Z,97727.00
2022-08-25T16:46:01.730Z,97720.00
2022-08-25T16:50:06.115Z,97720.00
2022-08-25T16:54:29.451Z,97717.00
2022-08-25T16:58:32.555Z,97721.00
2022-08-25T17:02:33.555Z,97715.00
2022-08-25T17:06:40.750Z,97717.00
2022-08-25T17:10:43.781Z,97717.00
2022-08-25T17:14:45.238Z,97714.00
2022-08-25T17:18:47.872Z,97722.00
2022-08-25T17:22:50.253Z,97714.00
2022-08-25T17:26:51.514Z,97725.00
2022-08-25T17:30:53.449Z,97726.00
2022-08-25T17:34:55.285Z,97732.00
2022-08-25T17:38:56.767Z,97722.00
2022-08-25T17:42:58.318Z,97728.00
2022-08-25T17:47:00.068Z,97720.00
2022-08-25T17:51:02.516Z,97721.00
2022-08-25T17:55:04.222Z,97722.00
2022-08-25T17:59:08.851Z,97718.00
2022-08-25T18:03:10.133Z,97726.00
2022-08-25T18:07:11.225Z,97726.00
2022-08-25T18:11:13.758Z,97722.00
2022-08-25T18:15:15.177Z,97731.00
2022-08-25T18:19:16.640Z,97723.00
2022-08-25T18:23:19.228Z,97728.00
2022-08-25T18:27:21.703Z,97728.00
2022-08-25T18:31:23.418Z,97730.00
2022-08-25T18:35:26.757Z,97731.00
2022-08-25T18:39:46.972Z,97734.00
2022-08-25T18:43:48.229Z,97732.00
2022-08-25T18:47:51.421Z,97726.00
2022-08-25T18:51:52.562Z,97731.00
2022-08-25T18:55:54.400Z,97741.00
2022-08-25T18:59:55.937Z,97735.00
2022-08-25T19:03:57.066Z,97738.00
2022-08-25T19:08:00.307Z,97737.00
2022-08-25T19:12:01.891Z,97736.00
2022-08-25T19:16:20.579Z,97748.00
2022-08-25T19:20:24.028Z,97745.00
2022-08-25T19:24:25.885Z,97746.00
2022-08-25T19:28:27.827Z,97749.00
2022-08-25T19:32:29.569Z,97744.00
2022-08-25T19:36:30.800Z,97745.00
2022-08-25T19:40:32.673Z,97739.00
2022-08-25T19:44:35.345Z,97739.00
2022-08-25T19:48:36.477Z,97734.00
2022-08-25T19:52:39.999Z,97740.00
2022-08-25T19:56:54.797Z,97749.00
2022-08-25T20:00:51.113Z,97741.00
2022-08-25T20:04:52.361Z,97751.00
2022-08-25T20:08:59.059Z,97745.00
2022-08-25T20:12:57.680Z,97745.00
2022-08-25T20:16:59.421Z,97744.00
2022-08-25T20:21:00.483Z,97740.00
2022-08-25T20:25:13.004Z,97739.00
2022-08-25T20:29:10.349Z,97750.00
2022-08-25T20:33:12.642Z,97752.00
2022-08-25T20:37:13.981Z,97746.00
2022-08-25T20:41:15.223Z,97748.00
2022-08-25T20:45:20.171Z,97749.00
2022-08-25T20:49:21.265Z,97744.00
2022-08-25T20:53:22.855Z,97746.00
2022-08-25T20:57:26.594Z,97742.00
2022-08-25T21:01:38.194Z,97743.00
2022-08-25T21:05:42.367Z,97733.00
2022-08-25T21:09:43.472Z,97743.00
2022-08-25T21:13:45.190Z,97740.00
2022-08-25T21:17:52.240Z,97744.00
2022-08-25T21:21:59.475Z,97742.00
2022-08-25T21:25:58.196Z,97744.00
2022-08-25T21:29:59.272Z,97742.00
2022-08-25T21:34:01.945Z,97743.00
2022-08-25T21:38:03.075Z,97738.00
2022-08-25T21:42:05.478Z,97740.00
2022-08-25T21:46:12.586Z,97739.00
2022-08-25T21:50:14.185Z,97738.00
2022-08-25T21:54:17.453Z,97729.00
2022-08-25T21:58:19.313Z,97735.00
2022-08-25T22:02:22.808Z,97728.00
2022-08-25T22:06:24.172Z,97730.00
2022-08-25T22:10:25.689Z,97727.00
2022-08-25T22:14:29.000Z,97730.00
2022-08-25T22:18:30.116Z,97725.00
2022-08-25T22:22:31.221Z,97731.00
2022-08-25T22:26:33.312Z,97742.00
2022-08-25T22:30:35.893Z,97736.00
2022-08-25T22:34:40.068Z,97727.00
2022-08-25T22:38:42.072Z,97731.00
2022-08-25T22:42:47.812Z,97733.00
2022-08-25T22:46:46.221Z,97725.00
2022-08-25T22:50:47.700Z,97732.00
2022-08-25T22:54:48.903Z,97729.00
2022-08-25T22:58:51.772Z,97728.00
2022-08-25T23:02:53.580Z,97727.00
2022-08-25T23:06:54.762Z,97724.00
2022-08-25T23:10:56.514Z,97717.00
2022-08-25T23:14:57.701Z,97720.00
2022-08-25T23:18:59.637Z,97718.00
2022-08-25T23:23:00.655Z,97706.00
2022-08-25T23:27:04.094Z,97712.00
2022-08-25T23:31:07.465Z,97710.00
2022-08-25T23:35:10.348Z,97707.00
2022-08-25T23:39:11.325Z,97704.00
2022-08-25T23:43:12.821Z,97707.00
2022-08-25T23:47:14.146Z,97705.00
2022-08-25T23:51:26.916Z,97699.00
2022-08-25T23:55:33.466Z,97704.00
2022-08-25T23:59:32.580Z,97694.00
